x

8461490 - New London, Ct (nlnc3) Weather Station

9:54 - Sun 30th Apr 2017 All times are EDT. -4 hours from GMT.

  • Wind
    6mph, 9mph gusts
  • Sea Temp 49°f
  • Aire Temp 47°f
  • Sea Pressure 1024.3mb
  • 8461490 - New London, Ct
  • 8461490 - New London, Ct

More Historic Weather Station data

Upgrade to MSW Pro to gain access to the past 30 days of data for over 8000 Wavebouys and Weather Stations around the globe.

Join Pro

Comparision Forecast

View Surf forecast
   
dom 04/30 9:54 6 9 mph 1024.3mb 49f 47f
9:48 6 9 mph 1024mb 48f 48f
9:42 6 9 mph 1024.1mb 48f 48f
9:36 7 9 mph 1024.1mb 48f 48f
9:30 5 8 mph 1024.2mb 49f 47f
9:24 6 9 mph 1024.1mb 50f 47f
9:18 5 9 mph 1024mb 51f 48f
9:12 5 10 mph 1024mb 53f 47f
9:06 8 13 mph 1023.7mb 51f 47f
9:00 8 11 mph 1023.5mb 54f 48f
8:48 8 14 mph 1023.7mb 54f 48f
8:42 8 15 mph 1023.7mb 54f 48f
8:36 6 10 mph 1023.8mb 55f 48f
8:30 8 11 mph 1023.9mb 55f 49f
8:24 9 14 mph 1023.9mb 55f 48f
8:18 7 11 mph 1024.1mb 55f 48f
8:12 8 14 mph 1024.3mb 55f 48f
8:06 11 14 mph 1024.1mb 55f 48f
8:00 8 13 mph 1024mb 53f 49f
7:48 8 14 mph 1024.1mb 54f 49f
7:42 9 14 mph 1024.3mb 54f 48f
7:36 7 11 mph 1024.5mb 54f 49f
7:00 10 14 mph 1024.7mb 55f 48f
6:54 9 13 mph 1024.6mb 55f 49f
6:48 8 13 mph 1024.5mb 54f 49f
6:42 10 14 mph 1024.5mb 55f 49f
6:36 9 14 mph 1024.3mb 54f 49f
6:30 9 14 mph 1024.5mb 52f 49f
6:24 10 14 mph 1024.6mb 52f 50f
6:18 9 13 mph 1024.7mb 51f 49f
6:12 10 14 mph 1024.9mb 50f 50f
6:06 9 13 mph 1025.1mb 50f 49f
6:00 10 13 mph 1025mb 50f 50f
5:54 7 13 mph 1024.7mb 50f 49f
5:48 11 15 mph 1024.6mb 49f 50f
5:42 10 15 mph 1024.6mb 49f 49f
5:30 9 10 mph 1024.6mb 49f 49f
5:24 11 15 mph 1024.6mb 49f 49f
5:18 9 13 mph 1024.4mb 49f 50f
5:12 14 17 mph 1024.5mb 49f 50f
5:06 10 14 mph 1024.4mb 49f 50f
5:00 11 15 mph 1024.3mb 50f 50f
4:54 10 13 mph 1024.5mb 49f 50f
4:48 10 14 mph 1024.7mb 50f 49f
4:42 8 13 mph 1024.7mb 49f 49f
4:36 9 13 mph 1024.6mb 49f 50f
4:30 11 14 mph 1024.6mb 48f 50f
4:24 8 13 mph 1024.8mb 48f 50f
4:18 9 13 mph 1024.8mb 49f 51f
4:12 9 14 mph 1024.8mb 49f 50f
4:06 9 14 mph 1024.7mb 49f 50f
4:00 13 16 mph 1024.7mb 49f 50f
3:54 10 16 mph 1024.9mb 49f 50f
3:48 9 13 mph 1025mb 49f 51f
3:42 9 14 mph 1025.2mb 48f 50f
3:36 9 14 mph 1025.1mb 47f 51f
3:30 6 11 mph 1025.1mb 47f 50f
3:24 6 13 mph 1025.1mb 47f 50f
3:18 11 15 mph 1024.9mb 47f 50f
3:12 10 14 mph 1024.9mb 47f 51f
3:06 13 18 mph 1024.8mb 48f 51f
3:00 8 20 mph 1024.8mb 48f 51f
2:54 11 16 mph 1024.6mb 48f 52f
2:48 10 18 mph 1024.6mb 47f 51f
2:42 13 21 mph 1024.6mb 48f 52f
2:36 16 21 mph 1024.7mb 47f 52f
2:30 15 20 mph 1024.8mb 47f 52f
2:24 11 16 mph 1025.1mb 47f 52f
2:18 10 15 mph 1025.3mb 47f 50f
2:12 14 18 mph 1025.2mb 47f 50f
2:06 13 17 mph 1025.2mb 47f 51f
2:00 10 16 mph 1025.7mb 47f 51f
1:54 10 17 mph 1026mb 47f 51f
1:48 9 16 mph 1026.1mb 48f 51f
1:42 10 14 mph 1026mb 48f 52f
1:36 13 14 mph 1026.2mb 48f 52f
1:30 11 13 mph 1026.1mb 48f 52f
1:24 10 17 mph 1026.2mb 48f 52f
1:18 14 17 mph 1025.7mb 48f 51f
1:12 14 18 mph 1025.5mb 47f 51f
1:06 9 17 mph 1025.4mb 47f 52f
1:00 14 21 mph 1025.3mb 47f 53f
12:54 13 23 mph 1025.2mb 47f 53f
12:48 14 17 mph 1025.2mb 47f 53f
12:42 15 25 mph 1025.1mb 47f 52f
12:36 14 21 mph 1025mb 48f 53f
12:30 16 22 mph 1025.1mb 48f 53f
12:24 16 21 mph 1024.9mb 48f 53f
12:18 13 18 mph 1024.8mb 47f 53f
12:12 14 22 mph 1025.1mb 47f 53f
12:06 18 23 mph 1025mb 48f 53f
12:00 14 21 mph 1025.3mb 48f 53f
11:54 10 25 mph 1025.1mb 48f 53f
11:48 14 22 mph 1024.9mb 48f 53f
11:42 16 23 mph 1024.7mb 47f 53f
11:36 15 22 mph 1024.4mb 48f 54f
11:30 14 18 mph 1024.4mb 48f 53f
11:24 11 20 mph 1024.4mb 48f 55f
11:18 9 17 mph 1024.5mb 47f 54f
11:12 14 20 mph 1024.5mb 47f 55f
11:06 16 21 mph 1024.5mb 47f 54f
11:00 10 20 mph 1024.8mb 47f 54f
10:54 15 20 mph 1024.6mb 47f 55f
10:48 16 21 mph 1024.4mb 46f 55f
10:42 14 18 mph 1024.4mb 46f 56f
10:36 11 16 mph 1024.4mb 46f 56f
10:30 11 14 mph 1024.2mb 47f 57f
10:24 10 15 mph 1024.1mb 47f 56f
10:18 13 16 mph 1024.2mb 47f 55f
10:12 11 17 mph 1024.4mb 47f 57f
10:06 11 16 mph 1024.3mb 47f 56f
10:00 13 17 mph 1024.3mb 47f 56f
9:54 13 16 mph 1024.3mb 47f 56f
9:48 11 15 mph 1024.5mb 47f 57f
9:42 14 20 mph 1024.5mb 47f 56f
9:36 17 20 mph 1024.5mb 47f 57f
9:30 9 14 mph 1024.2mb 47f 60f
9:24 6 8 mph 1024.2mb 47f 60f
9:18 5 7 mph 1024.3mb 47f 61f
9:12 5 7 mph 1024.5mb 47f 60f
9:06 3 6 mph 1024.4mb 49f 60f
9:00 3 8 mph 1024.3mb 51f 60f
8:48 3 7 mph 1024.3mb 54f 60f
8:42 5 7 mph 1024.3mb 54f 60f
8:36 3 6 mph 1024.2mb 54f 60f
8:30 6 9 mph 1024.1mb 54f 59f
8:24 7 10 mph 1024.2mb 54f 59f
8:18 5 6 mph 1024.1mb 55f 59f
8:12 5 8 mph 1024.1mb 55f 59f
8:06 5 7 mph 1024mb 55f 59f
8:00 5 9 mph 1023.8mb 55f 58f
7:54 5 6 mph 1023.8mb 55f 58f
7:48 3 6 mph 1023.8mb 54f 59f
7:42 3 7 mph 1023.8mb 55f 59f
7:36 3 6 mph 1023.8mb 55f 58f
7:30 3 6 mph 1023.6mb 54f 58f
7:24 2 5 mph 1023.6mb 54f 58f
7:18 2 6 mph 1023.4mb 54f 59f
7:12 2 6 mph 1023.4mb 54f 58f
7:06 5 8 mph 1023mb 54f 58f
7:00 3 8 mph 1023.1mb 54f 58f
6:54 1 6 mph 1023.2mb 54f 58f
6:48 3 6 mph 1023.1mb 54f 58f
6:42 3 8 mph 1022.9mb 54f 57f
6:36 6 8 mph 1022.9mb 55f 57f
6:30 3 5 mph 1022.9mb 55f 58f
6:24 3 8 mph 1022.4mb 54f 57f
6:18 3 7 mph 1022.4mb 54f 57f
6:12 6 8 mph 1022.3mb 54f 57f
6:06 6 7 mph 1022.4mb 54f 56f
6:00 5 7 mph 1022.5mb 53f 56f
5:54 5 7 mph 1022.1mb 53f 56f
5:48 5 6 mph 1022.1mb 52f 57f
5:42 5 7 mph 1022mb 52f 57f
5:36 5 6 mph 1021.8mb 52f 57f
5:30 3 6 mph 1021.9mb 52f 57f
5:24 3 7 mph 1021.9mb 52f 57f
5:18 5 7 mph 1021.8mb 52f 57f
5:12 3 7 mph 1021.6mb 51f 57f
5:06 5 7 mph 1021.5mb 50f 58f
5:00 3 7 mph 1021.3mb 50f 58f
4:54 5 10 mph 1021mb 50f 58f
4:48 6 9 mph 1021mb 50f 58f
4:42 7 10 mph 1021mb 50f 58f
4:36 6 9 mph 1021mb 50f 58f
4:30 6 10 mph 1021.1mb 50f 58f
4:24 5 9 mph 1020.9mb 50f 59f
4:18 7 10 mph 1020.9mb 50f 59f
4:12 6 10 mph 1020.9mb 50f 59f
4:06 6 9 mph 1020.9mb 49f 59f
4:00 7 10 mph 1020.7mb 49f 59f
3:54 8 15 mph 1020.6mb 49f 60f
3:48 7 13 mph 1020.4mb 49f 60f
3:42 6 13 mph 1020.2mb 49f 60f
3:36 9 14 mph 1020.2mb 49f 60f
3:30 8 14 mph 1020.1mb 48f 60f
3:24 5 10 mph 1020.1mb 48f 61f
3:18 8 11 mph 1020mb 48f 61f
3:12 7 13 mph 1020.1mb 48f 61f
3:06 7 11 mph 1020.1mb 48f 61f
3:00 5 11 mph 1020mb 48f 62f
2:54 7 14 mph 1020mb 48f 62f
2:48 9 14 mph 1019.8mb 48f -
2:42 11 15 mph 1019.8mb 48f -
2:36 11 16 mph 1019.7mb 48f -
2:30 10 17 mph 1019.8mb 47f 63f
2:24 10 15 mph 1019.7mb 47f 63f
2:18 9 14 mph 1019.6mb 47f 63f
2:06 11 16 mph 1019.5mb 47f 64f
2:00 10 14 mph 1019.6mb 47f 64f
1:54 9 13 mph 1019.5mb 47f 65f
1:48 7 15 mph 1019.6mb 47f 65f
1:42 9 14 mph 1019.4mb 47f 65f
1:36 8 13 mph 1019.3mb 47f 65f
1:30 13 18 mph 1019.2mb 47f 66f
1:24 7 10 mph 1019mb 47f 66f
1:18 3 8 mph 1018.9mb 47f 65f
1:12 5 7 mph 1018.9mb 47f 66f
1:06 5 8 mph 1018.9mb 47f 66f
1:00 5 9 mph 1018.8mb 47f 66f
12:54 2 9 mph 1018.8mb 47f 66f
12:48 5 7 mph 1018.8mb 47f 66f
12:42 5 10 mph 1018.6mb 47f 67f
12:36 6 9 mph 1018.6mb 47f 67f
12:30 5 9 mph 1018.6mb 47f 67f
12:24 3 8 mph 1018.5mb 47f 67f
12:18 3 7 mph 1018.4mb 47f 67f
12:12 3 6 mph 1018.4mb 47f 67f
12:06 5 7 mph 1018.3mb 47f 67f
12:00 6 9 mph 1018.2mb 47f 68f
sáb 04/29 11:54 5 7 mph 1018.2mb 47f 67f
11:48 5 7 mph 1018.2mb 47f 68f
11:42 2 7 mph 1018.1mb 47f 68f
11:36 5 8 mph 1018.1mb 48f 68f
11:30 5 7 mph 1018mb 48f 68f
11:24 3 6 mph 1017.9mb 48f 68f
11:18 3 10 mph 1017.9mb 48f 68f
11:12 6 8 mph 1017.9mb 48f 68f
11:06 5 9 mph 1017.9mb 48f 68f
11:00 7 9 mph 1017.5mb 48f 68f
10:54 6 8 mph 1017.6mb 47f 69f
10:48 3 5 mph 1017.9mb 48f 69f
10:42 3 6 mph 1017.9mb 48f 69f
10:36 5 7 mph 1017.8mb 48f 69f
10:30 5 7 mph 1017.8mb 47f 69f
10:24 6 8 mph 1017.8mb 47f 69f
10:18 5 11 mph 1017.8mb 48f 70f
10:12 5 8 mph 1017.7mb 48f 70f
10:06 5 9 mph 1017.7mb 47f 70f
10:00 7 9 mph 1017.6mb 47f 70f
9:54 5 10 mph 1017.5mb 48f 71f
9:48 6 10 mph 1017.4mb 48f 71f
9:42 8 14 mph 1017.3mb 50f 71f
9:36 7 10 mph 1017.2mb 50f 71f
9:30 7 10 mph 1017mb 49f 71f
9:24 8 10 mph 1016.8mb 49f 71f
9:18 7 13 mph 1016.7mb 49f 72f
9:12 9 13 mph 1016.6mb 50f 72f
9:06 8 15 mph 1016.3mb 49f 72f
9:00 9 13 mph 1016.1mb 47f 72f
8:48 8 11 mph 1015.8mb 47f 73f
8:42 7 10 mph 1015.6mb 48f 73f
8:36 6 10 mph 1015.4mb 49f 74f
8:30 7 15 mph 1015.3mb 51f 74f
8:24 10 13 mph 1015mb 53f 74f
8:18 9 14 mph 1014.9mb 56f 74f
8:12 8 14 mph 1014.7mb 56f 75f
8:06 11 16 mph 1014.6mb 57f 75f
8:00 9 13 mph 1014.4mb 58f 76f
7:54 10 14 mph 1014.2mb 58f 76f
7:48 11 15 mph 1014mb 58f 77f
7:42 7 11 mph 1014mb 58f 77f
7:36 7 14 mph 1013.8mb 57f 79f
7:30 7 10 mph 1013.7mb 56f 79f
7:24 6 11 mph 1013.5mb 57f 80f
7:18 6 10 mph 1012.9mb 59f 81f
7:12 6 14 mph 1012.6mb 59f 82f
7:06 8 11 mph 1012.5mb 59f 82f
7:00 7 10 mph 1012.8mb 59f 82f
6:54 6 15 mph 1012.4mb 58f 82f
6:48 14 18 mph 1012.4mb 58f 83f
6:42 7 14 mph 1012.7mb 59f 83f
6:36 9 17 mph 1012.4mb 59f 83f
6:30 10 17 mph 1012.5mb 58f 83f
6:24 9 18 mph 1012.7mb 59f 84f
6:18 11 20 mph 1012.7mb 58f 84f
6:12 11 18 mph 1012.5mb 58f 84f
6:06 11 17 mph 1012.6mb 58f 84f
6:00 6 9 mph 1012.8mb 58f 83f
5:54 7 11 mph 1012.6mb 58f 82f
5:48 7 11 mph 1012.3mb 57f 83f
5:42 10 15 mph 1012.2mb 56f 82f
5:36 8 11 mph 1012.3mb 55f 82f
5:30 7 15 mph 1012.3mb 55f 82f
5:24 8 16 mph 1012.4mb 54f 82f
5:18 9 14 mph 1012.5mb 54f 82f
5:12 10 17 mph 1012.4mb 52f 82f
5:06 11 18 mph 1012.2mb 52f 82f
5:00 14 18 mph 1012.1mb 52f 82f
4:54 11 17 mph 1012mb 53f 82f
4:48 10 16 mph 1012mb 52f 83f
4:42 14 18 mph 1012.1mb 50f 82f
4:36 8 18 mph 1012.2mb 49f 82f
4:30 16 22 mph 1012.2mb 49f 81f
4:24 14 22 mph 1012.3mb 49f 81f
4:18 15 23 mph 1012.2mb 48f 81f
4:12 15 24 mph 1012.2mb 49f 81f
4:06 15 25 mph 1012mb 49f 81f
4:00 10 18 mph 1011.9mb 49f 80f
3:54 14 23 mph 1011.9mb 49f 80f
3:48 9 25 mph 1011.8mb 49f 80f
3:42 14 22 mph 1011.8mb 49f 80f
3:36 11 21 mph 1011.9mb 49f 81f
3:30 13 21 mph 1011.7mb 49f 80f
3:24 10 17 mph 1011.6mb 49f 80f
3:18 13 20 mph 1011.7mb 48f 80f
3:12 11 20 mph 1011.7mb 47f 80f
3:06 9 18 mph 1011.6mb 47f 79f
3:00 11 17 mph 1011.7mb 47f 78f
2:54 10 16 mph 1011.8mb 47f 78f
2:48 10 16 mph 1011.8mb 47f 77f
2:42 8 13 mph 1011.8mb 48f 77f
2:36 9 15 mph 1011.7mb 47f 77f
2:30 10 14 mph 1011.5mb 47f 76f
2:24 10 16 mph 1011.8mb 47f 76f
2:18 14 18 mph 1011.8mb 48f 76f
2:12 13 23 mph 1011.7mb 48f 76f
2:06 14 20 mph 1011.7mb 47f 75f
2:00 13 18 mph 1011.8mb 47f 76f
1:54 10 14 mph 1011.8mb 47f 75f
1:48 13 18 mph 1011.9mb 47f 74f
1:42 14 17 mph 1012.2mb 47f 74f
1:36 13 16 mph 1012.4mb 47f 74f
1:30 13 20 mph 1012.3mb 47f 74f
1:24 15 20 mph 1012.2mb 47f 73f
1:18 10 16 mph 1012.3mb 47f 77f
1:12 7 13 mph 1012.4mb 47f 79f
1:06 7 10 mph 1012.2mb 47f 78f
1:00 6 8 mph 1012.5mb 47f 77f
12:54 5 10 mph 1012.6mb 47f 76f
12:48 3 9 mph 1012.6mb 47f 76f
12:42 8 11 mph 1012.9mb 47f 74f
12:36 6 11 mph 1013mb 47f 73f
12:30 6 13 mph 1013.2mb 47f 72f
12:24 11 18 mph 1013.4mb 47f 71f
12:18 11 15 mph 1013.7mb 47f 72f
12:12 9 14 mph 1013.8mb 47f 72f
12:06 9 13 mph 1013.8mb 47f 71f
12:00 8 15 mph 1014mb 47f 72f
11:54 9 15 mph 1014mb 47f 71f
11:48 7 10 mph 1014.3mb 47f 71f
11:42 7 14 mph 1014.5mb 47f 71f
11:36 6 13 mph 1014.7mb 47f 69f
11:30 7 13 mph 1015mb 48f 70f
11:24 7 11 mph 1015.2mb 48f 69f
11:18 8 11 mph 1015.3mb 48f 69f
11:12 9 17 mph 1015.4mb 47f 68f
11:06 11 17 mph 1015.6mb 48f 67f
11:00 11 15 mph 1015.6mb 48f 67f
10:54 8 13 mph 1015.6mb 48f 67f
10:48 10 14 mph 1015.6mb 47f 66f
10:42 8 14 mph 1015.7mb 48f 66f
10:36 6 14 mph 1015.6mb 48f 65f
10:30 9 13 mph 1015.8mb 48f 62f
10:24 10 14 mph 1015.9mb 48f 60f
10:18 10 14 mph 1015.8mb 48f 60f
10:12 11 15 mph 1015.7mb 48f 59f
10:06 14 17 mph 1015.6mb 49f 60f
10:00 14 18 mph 1015.3mb 49f 59f
9:54 14 17 mph 1015.2mb 49f 59f
9:48 8 9 mph 1015mb 49f 63f
9:42 1 2 mph 1014.8mb 50f 64f
9:36 1
mph
1014.7mb 50f 63f
9:30 1
mph
1014.8mb 49f 64f
9:24  -  1 mph 1014.7mb 48f 63f
9:18  -  2 mph 1014.5mb 49f 62f
9:12 2 3 mph 1014.6mb 47f 59f
9:06 3
mph
1014.9mb 47f 60f
9:00 1 5 mph 1014.9mb 50f 60f
8:54 5 7 mph 1015mb 50f 60f
8:48 6 7 mph 1014.8mb 50f 59f
8:42 6 7 mph 1014.9mb 49f 59f
8:36 6 8 mph 1014.8mb 49f 58f
8:30 6 9 mph 1015mb 48f 57f
8:24 7 10 mph 1015.1mb 54f 56f
8:18 7 10 mph 1015.1mb 54f 56f
8:12 6 9 mph 1015.3mb 54f 56f
8:06 8 13 mph 1015.3mb 54f 56f
8:00 10 13 mph 1015.5mb 54f 56f
7:54 5 7 mph 1015.3mb 54f 58f
7:48 5 6 mph 1015.2mb 55f 58f
7:42 3 6 mph 1015.3mb 55f 57f
7:36 6 9 mph 1015.6mb 55f 57f
7:30 7 9 mph 1015.9mb 54f 57f
7:24 5 7 mph 1016mb 54f 57f
7:18 5 7 mph 1015.9mb 54f 57f
7:12 6 8 mph 1015.9mb 54f 57f
7:06 3 6 mph 1015.9mb 54f 58f
7:00 2
mph
1015.9mb 54f 57f
6:54  -  2 mph 1015.8mb 54f 57f
6:48 2 6 mph 1015.8mb 54f 57f
6:42 2 3 mph 1015.4mb 54f 58f
6:36 2
mph
1015.3mb 54f 58f
6:30 1 2 mph 1015.2mb 54f 58f
6:24  -  1 mph 1015.2mb 54f 58f
6:18  -  2 mph 1015.3mb 54f 58f
6:12 2
mph
1015.4mb 54f 57f
6:06 1
mph
1015.3mb 54f 58f
6:00 1 2 mph 1015.4mb 54f 58f
5:54  -  3 mph 1015.2mb 54f 58f
5:48 2 8 mph 1015.4mb 54f 58f
5:42 7 9 mph 1015.2mb 54f 58f
5:36 8 13 mph 1014.8mb 54f 57f
5:30 3 5 mph 1015mb 54f 59f
5:24 1 3 mph 1015.2mb 54f 60f
5:18 2
mph
1015.3mb 54f 60f
5:12  -  3 mph 1015.3mb 54f 59f
5:06 3 5 mph 1015.3mb 54f 59f
5:00 2
mph
1016.1mb 53f 59f
4:54 1 2 mph 1016.4mb 53f 59f
4:48  -  1 mph 1016.6mb 53f 60f
4:42  -  1 mph 1016.4mb 53f 60f
4:36  -  1 mph 1016.5mb 52f 60f
4:30  -  2 mph 1016.4mb 52f 60f
4:24 1 2 mph 1016.4mb 51f 60f
4:18 2
mph
1016.4mb 51f 60f
4:12 1 3 mph 1016.5mb 51f 60f
4:06 2
mph
1016.3mb 50f 60f
4:00 2 3 mph 1016.7mb 49f 59f
3:54  -  2 mph 1016.8mb 49f 60f
3:48 2 5 mph 1016.8mb 48f 60f
3:42 1 2 mph 1016.7mb 49f 59f
3:36 2
mph
1016.6mb 49f 59f
3:30 2
mph
1016.5mb 50f 59f
3:24 2 3 mph 1016.4mb 49f 59f
3:18 3
mph
1016.4mb 49f 59f
3:12 3 5 mph 1016.5mb 49f 59f
3:06 2 3 mph 1016.3mb 49f 59f
3:00 3 5 mph 1016.5mb 48f 59f
2:54 2 5 mph 1016.6mb 48f 59f
2:48 3 5 mph 1016.6mb 48f 58f
2:42 2 3 mph 1016.8mb 48f 58f
2:36 2 3 mph 1016.8mb 48f 58f
2:30 3 5 mph 1016.7mb 48f 58f
2:24 2 5 mph 1016.7mb 47f 59f
2:18 3
mph
1016.6mb 47f 59f
2:12 3
mph
1016.5mb 47f 58f
2:06 3 5 mph 1016.4mb 47f 59f
2:00 3
mph
1016.6mb 47f 59f
1:54 2 5 mph 1016.6mb 47f 59f
1:48 3 6 mph 1016.7mb 47f -
1:42 5 6 mph 1017mb 47f -
1:36 5 6 mph 1017.1mb 47f -
1:30 5 6 mph 1016.9mb 47f 59f
1:24 3 7 mph 1016.9mb 46f 59f
1:18 6 7 mph 1017mb 47f 59f
1:12 2 6 mph 1017mb 47f 58f
1:06 3 7 mph 1017.1mb 47f 58f
1:00 6 7 mph 1017.1mb 46f 57f
12:54 3 6 mph 1017.1mb 46f 57f
12:48 6 8 mph 1017.1mb 46f 58f
12:42 2 6 mph 1017mb 47f 59f
12:36 5
mph
1016.9mb 47f 60f
12:30 3 5 mph 1016.7mb 47f 60f
12:24 3 5 mph 1016.8mb 46f 59f
12:18 2 3 mph 1016.8mb 46f 59f
12:12 2 6 mph 1016.9mb 46f 59f
12:06 5 6 mph 1016.9mb 46f 58f
12:00 6
mph
1016.8mb 46f 58f
vie 04/28 11:54 5 7 mph 1016.9mb 46f 58f
11:48 6 7 mph 1016.8mb 47f 58f
11:42 3 6 mph 1016.7mb 47f 60f
11:36 5 6 mph 1016.7mb 47f 61f
11:30 6
mph
1016.6mb 46f 61f
11:24 2 3 mph 1016.5mb 46f 61f
11:18 2
mph
1016.6mb 47f 61f
11:12 2
mph
1016.6mb 47f 61f
11:06 2 5 mph 1016.7mb 47f 61f
11:00 5 6 mph 1016.5mb 47f 61f
10:54 2 3 mph 1016.6mb 47f 61f
10:48 1 2 mph 1016.7mb 47f 62f
10:42 1 2 mph 1017mb 48f 62f
10:36 1 2 mph 1017mb 48f 63f
10:30  -  2 mph 1016.9mb 47f 63f
10:24 1 2 mph 1017mb 47f 62f
10:18  -  1 mph 1016.9mb 47f 62f
10:12  -  1 mph 1017mb 47f 62f
10:06 1 2 mph 1017mb 47f 62f
10:00  -  1 mph 1017.2mb 48f 62f
9:54  -  2 mph 1017.2mb 47f 62f
9:48 1 2 mph 1017.1mb 47f 62f
9:42 1 2 mph 1017.1mb 47f 62f
9:36 1 3 mph 1016.9mb 47f 61f
9:30 1 3 mph 1016.8mb 47f 61f
9:24 1 3 mph 1016.8mb 47f 61f
9:18 1 2 mph 1016.8mb 47f 62f
9:12 1 2 mph 1016.8mb 47f 62f
9:06  -  1 mph 1016.7mb 48f 62f
9:00  -  1 mph 1016.7mb 51f 62f
8:48  -  2 mph 1016.5mb 51f 61f
8:42 2
mph
1016.3mb 51f 61f
8:36 2 3 mph 1016.3mb 50f 61f
8:30 2 5 mph 1016.1mb 49f 60f
8:24 2 6 mph 1016mb 49f 59f
8:18 6
mph
1015.9mb 48f 59f
8:12 3 5 mph 1016mb 48f 59f
8:06 2 3 mph 1015.9mb 49f 60f
8:00 2 3 mph 1015.7mb 49f 60f
7:48 3
mph
1015.6mb 50f 61f
7:42 3 6 mph 1015.6mb 50f 61f
7:36 6
mph
1015.5mb 50f 62f
7:30 5 6 mph 1015.4mb 51f 62f
7:24 6 8 mph 1015.3mb 52f 64f
7:18 7 8 mph 1015.2mb 51f 64f
7:12 5 7 mph 1015.2mb 53f 64f
7:06 5 6 mph 1015mb 53f 64f
7:00 5 8 mph 1014.9mb 54f 64f
6:54 6 7 mph 1014.9mb 53f 63f
6:48 6 8 mph 1014.9mb 53f 62f
6:42 6 9 mph 1015mb 53f 61f
6:36 7 9 mph 1015.1mb 53f 62f
6:30 6 10 mph 1015.1mb 54f 62f
6:24 6 9 mph 1015.1mb 54f 63f
6:18 6 9 mph 1015mb 53f 65f
6:12 6 8 mph 1015.1mb 53f 67f
6:06 7 9 mph 1015mb 53f 67f
6:00 7 9 mph 1015.1mb 53f 68f
5:48 5 8 mph 1015.1mb 53f 69f
5:42 7 9 mph 1015.1mb 53f 70f
5:36 7 10 mph 1015.1mb 52f 69f
5:30 8 11 mph 1015mb 53f 74f
5:24 7 9 mph 1015mb 53f 74f
5:18 7 11 mph 1015mb 52f 74f
5:12 8 14 mph 1014.9mb 53f 74f
5:06 8 14 mph 1014.9mb 53f 73f
5:00 8 13 mph 1014.9mb 54f 72f
4:54 6 9 mph 1014.8mb 53f 68f
4:48 8 9 mph 1014.7mb 53f 66f
4:42 8 11 mph 1014.7mb 53f 65f
4:36 9 11 mph 1014.6mb 52f 64f
4:30 8 9 mph 1014.6mb 52f 65f
4:24 7 9 mph 1014.7mb 52f 65f
4:18 9 11 mph 1014.7mb 52f 64f
4:12 7 9 mph 1014.8mb 51f 64f
4:06 8 10 mph 1014.8mb 50f 64f
4:00 8 9 mph 1014.8mb 49f 63f
3:54 8 10 mph 1014.7mb 49f 62f
3:48 6 10 mph 1014.7mb 49f 63f
3:42 6 9 mph 1014.8mb 49f 63f
3:36 7 10 mph 1014.8mb 49f 64f
3:30 8 10 mph 1014.8mb 48f 65f
3:24 6 8 mph 1014.7mb 48f 65f
3:18 7 11 mph 1014.8mb 48f 64f
3:12 11 13 mph 1014.7mb 49f 62f
3:06 11 14 mph 1014.8mb 49f 61f
3:00 13 14 mph 1014.8mb 49f 62f
2:54 11 13 mph 1014.7mb 48f 63f
2:48 13 14 mph 1014.7mb 49f 62f
2:42 10 13 mph 1014.8mb 48f 62f
2:36 9 10 mph 1014.9mb 49f 66f
2:30 9 10 mph 1015.1mb 48f 66f
2:24 9
mph
1015.2mb 48f 66f
2:18 8 9 mph 1015.2mb 48f 66f
2:12 8 9 mph 1015.2mb 47f 67f
2:06 9 10 mph 1015.3mb 48f 68f
2:00 6 10 mph 1015.3mb 47f 69f
1:54 8 11 mph 1015.4mb 47f 69f
1:48 7 11 mph 1015.5mb 47f 69f
1:42 7 10 mph 1015.7mb 47f 69f
1:36 7 10 mph 1015.6mb 47f 68f
1:30 7 9 mph 1015.4mb 47f 65f
1:24 9 11 mph 1015.3mb 47f 63f
1:18 10
mph
1015.4mb 47f 62f
1:12 10 11 mph 1015.2mb 46f 62f
1:06 11
mph
1015.1mb 47f 63f
1:00 8 9 mph 1015mb 46f 64f
12:54 9 10 mph 1015mb 46f 63f
12:48 9 10 mph 1015.2mb 46f 62f
12:42 8 9 mph 1015.2mb 46f 62f
12:36 9
mph
1015.1mb 46f 61f
12:30 7 8 mph 1015.1mb 46f 62f
12:24 7 8 mph 1015.2mb 46f 61f
12:18 8
mph
1015.2mb 46f 60f
12:12 7 9 mph 1015.3mb 47f 59f
12:06 9 11 mph 1015.4mb 46f 58f
12:00 10 13 mph 1015.5mb 46f 58f
11:54 11 14 mph 1015.6mb 46f 58f
11:48 11 14 mph 1015.5mb 46f 58f
11:42 8 9 mph 1015.5mb 47f 59f
11:36 7 8 mph 1015.5mb 46f 59f
11:30 7 8 mph 1015.5mb 46f 58f
11:24 6 8 mph 1015.4mb 46f 58f
11:18 6 8 mph 1015.5mb 47f 59f
11:12 5 6 mph 1015.4mb 47f 59f
11:06 5 6 mph 1015.4mb 47f 58f
11:00 5
mph
1015.3mb 47f 57f
10:48 3 5 mph 1015.2mb 47f 57f
10:42 3 6 mph 1015.2mb 47f 56f
10:36 5 6 mph 1015.3mb 47f 56f
10:24 5 6 mph 1015.2mb 47f 56f
10:18 3 5 mph 1015.1mb 48f 56f
10:12 2 3 mph 1015.1mb 48f 55f
10:06 2 5 mph 1015.1mb 48f 56f
10:00 2 5 mph 1015mb 48f 56f
9:54 3 6 mph 1014.9mb 48f 55f
9:48 3 5 mph 1014.9mb 48f 55f
9:42 2 6 mph 1014.8mb 47f 55f
9:36 5 7 mph 1014.9mb 47f 55f
9:30 6 7 mph 1014.9mb 47f 55f
9:24 6 7 mph 1014.8mb 48f 55f
9:18 5
mph
1014.7mb 47f 55f
9:12 2 5 mph 1014.7mb 47f 54f
9:06 5
mph
1014.5mb 47f 54f
9:00 5 6 mph 1014.6mb 48f 54f
8:54 5
mph
1014.5mb 48f 54f
8:48 3 5 mph 1014.5mb 48f 54f
8:42 3 5 mph 1014.7mb 47f 55f
8:36 2
mph
1014.7mb 48f 55f
8:30 1 6 mph 1014.5mb 50f 55f
8:24 5 8 mph 1015mb 51f 55f
8:18 2 5 mph 1014.5mb 51f 55f
8:12  -  2 mph 1013.7mb 51f 54f
8:06  -  2 mph 1013.9mb 52f 54f
8:00 3 5 mph 1014.5mb 52f 54f
7:30 3
mph
1014.4mb 52f 55f
7:24 3
mph
1014.2mb 52f 55f
7:18 1 5 mph 1014.2mb 52f 55f
7:12 3 5 mph 1014.1mb 52f 55f
7:06 2 3 mph 1014mb 52f 54f
7:00  -  2 mph 1013.6mb 52f 54f
6:54 1 2 mph 1013.7mb 52f 54f
6:48 1 3 mph 1013.7mb 52f 54f
6:42 3 5 mph 1013.7mb 52f 54f
6:36 3 6 mph 1013.7mb 52f 54f
6:30 6 7 mph 1013.8mb 52f 54f
6:24 5 6 mph 1013.7mb 52f 54f
6:18 2 5 mph 1013.7mb 52f 55f
6:12 5 8 mph 1013.8mb 52f 55f
6:06 3 7 mph 1013.9mb 52f 55f
6:00 5 6 mph 1013.8mb 52f 55f
5:54 3 5 mph 1012.7mb 52f 55f
5:48 2 5 mph 1012.9mb 52f 55f
5:42 5 6 mph 1012.9mb 52f 55f
5:36 3 5 mph 1012.8mb 52f 55f
5:30 2 3 mph 1012.9mb 52f 55f
5:24 2 5 mph 1012.8mb 52f 55f
5:18 3 5 mph 1012.7mb 52f 55f
5:12 2 3 mph 1012.8mb 52f 55f
5:06 2 3 mph 1012.6mb 52f 55f
5:00 2 3 mph 1012.5mb 52f 54f
4:54 3
mph
1012.5mb 52f 54f
4:48 2 3 mph 1012.8mb 52f 55f
4:42 2 3 mph 1012.7mb 52f 55f
4:36 3 5 mph 1012.7mb 51f 55f
4:30 3 5 mph 1012.8mb 51f 55f
4:24 2 3 mph 1012.6mb 51f 55f
4:18 3
mph
1012.5mb 51f 54f
4:12 2 3 mph 1012.5mb 51f 54f
4:06 3 5 mph 1012.5mb 51f 54f
4:00 2 3 mph 1012.5mb 51f 54f
3:54 2 3 mph 1012.5mb 51f 54f
3:48 3 6 mph 1012.7mb 51f 54f
3:42 3 5 mph 1012.8mb 51f 54f
3:36 3 5 mph 1012.8mb 50f 54f
3:18 2 3 mph 1013mb 49f 54f
3:12 2
mph
1013.2mb 49f 54f
3:06 3 5 mph 1013.2mb 49f 54f
3:00 3 5 mph 1013.1mb 49f 54f
2:54 3 6 mph 1013mb 48f 54f
2:48 3 6 mph 1013.1mb 48f 54f
2:42 5 6 mph 1013mb 48f 54f
2:36 3
mph
1013mb 48f 54f
2:30 2 3 mph 1013mb 48f 54f
2:24 2 5 mph 1012.9mb 48f 54f
2:18 3 5 mph 1012.9mb 48f 54f
2:12 3 6 mph 1012.9mb 48f 54f
2:06 5 8 mph 1012.9mb 48f 54f
2:00 6 8 mph 1013mb 48f 54f
1:54 6 8 mph 1013.1mb 48f 54f
1:48 5 7 mph 1013.1mb 47f 55f
1:42 5 8 mph 1013.1mb 47f 55f
1:36 5 6 mph 1013.2mb 47f 55f
1:30 2 6 mph 1013.2mb 47f 55f
1:24 3 7 mph 1013.4mb 47f 55f
1:18 6 9 mph 1013.4mb 47f 55f
1:12 6 8 mph 1013.4mb 47f 55f
1:06 5 7 mph 1013.3mb 47f 55f
1:00 5 7 mph 1013.4mb 47f 55f
12:54 3 7 mph 1013.5mb 47f 55f
12:48 2 3 mph 1013.6mb 46f 55f
12:42 2 7 mph 1013.7mb 46f 55f
12:36 3 7 mph 1013.7mb 46f 55f
12:30 3 6 mph 1013.7mb 46f 55f
12:24 5 6 mph 1013.6mb 46f 55f
12:18 3 7 mph 1013.7mb 46f 55f
12:12 5 8 mph 1013.7mb 46f 55f
12:06 6 8 mph 1013.7mb 46f 55f
12:00 2 5 mph 1013.7mb 46f 55f
jue 04/27 11:54 3 5 mph 1013.7mb 46f 54f
11:48 3
mph
1013.7mb 46f 54f
11:42 2
mph
1013.8mb 46f 55f
11:36 1 2 mph 1013.8mb 46f 55f
11:30 1 2 mph 1013.9mb 46f 55f
11:24  -  1 mph 1013.8mb 46f 54f
11:18 1 2 mph 1013.8mb 46f 54f
11:12  -  2 mph 1013.9mb 46f 54f
11:06  -  mph 1014.1mb 46f 54f
11:00  -  mph 1014.1mb 46f 54f
10:54  -  mph 1013.9mb 46f 54f
10:48  -  mph 1013.9mb 46f 54f
10:42  -  mph 1013.9mb 47f 54f
10:36  -  mph 1013.9mb 47f 54f
10:30  -  1 mph 1013.8mb 47f 54f
10:24  -  1 mph 1013.8mb 47f 54f
10:18 2
mph
1013.9mb 47f 54f
10:12 1 2 mph 1013.9mb 47f 53f
10:06  -  1 mph 1014.1mb 47f 54f
10:00  -  1 mph 1014.1mb 47f 53f
9:54 1
mph
1014.1mb 47f 53f
9:48  -  3 mph 1014.1mb 48f 53f
9:42 3 5 mph 1014.3mb 48f 53f
9:36 3 5 mph 1014.2mb 47f 53f
9:30 5
mph
1014.2mb 48f 54f
9:24 3 5 mph 1014.2mb 47f 53f
9:18 5 6 mph 1014.2mb 47f 53f
9:12 5 6 mph 1014.1mb 47f 53f
9:06 5 7 mph 1014.1mb 47f 52f
9:00 6 7 mph - 48f 52f
8:54 6 7 mph - 48f 52f
8:48 6 7 mph 1014mb 48f 53f
8:42 6 7 mph 1014mb 47f 53f
8:36 5 8 mph 1013.9mb 48f 53f
8:30 7 8 mph 1014mb 47f 53f
8:24 7 8 mph 1014mb 47f 53f
8:18 8 9 mph 1014mb 47f 52f
8:12 8
mph
1014mb 47f 52f
8:06 7 8 mph 1014mb 48f 53f
8:00 8 9 mph 1013.9mb 48f 53f
7:48 8 9 mph 1013.8mb 49f 53f
7:42 8 9 mph 1013.8mb 49f 53f
7:36 8 9 mph 1013.8mb 48f 53f
7:30 7 9 mph 1013.8mb 48f 53f
7:24 8 10 mph 1013.7mb 48f 53f
7:18 9 10 mph 1013.6mb 48f 53f
7:12 9 10 mph 1013.6mb 48f 53f
7:06 9 10 mph 1013.5mb 48f 53f
7:00 8 9 mph 1013.3mb 50f 53f
6:54 7 8 mph 1013.3mb 51f 53f
6:48 8 9 mph 1013.2mb 51f 53f
6:42 8 9 mph 1013.1mb 50f 53f
6:36 9 10 mph 1013.1mb 51f 54f
6:30 6 9 mph 1013.1mb 51f 54f
6:24 7 9 mph 1013.1mb 53f 54f
6:18 7 9 mph 1013mb 53f 54f
6:12 8 11 mph 1013.1mb 53f 54f
6:06 8 11 mph 1013mb 52f 54f
6:00 10 13 mph 1013mb 52f 54f
5:54 11 13 mph 1012.9mb 52f 54f
5:48 9 11 mph 1013mb 52f 55f
5:42 9 13 mph 1013mb 51f 56f
5:36 9 10 mph 1012.9mb 52f 56f
5:30 8 10 mph 1012.8mb 52f 56f
5:24 8 11 mph 1012.8mb 52f 56f
5:18 8 13 mph 1012.8mb 52f 56f
5:12 9 13 mph 1012.8mb 52f 56f
5:06 10 11 mph 1012.8mb 53f 56f
5:00 7 9 mph 1012.8mb 52f 56f
4:42 9 13 mph 1012.8mb 52f 56f
4:36 11 14 mph 1012.8mb 52f 56f
4:24 10 13 mph 1012.7mb 52f 57f
4:18 10 14 mph 1012.7mb 52f 57f
4:12 9 10 mph 1012.6mb 52f 58f
4:06 9 11 mph 1012.6mb 52f 57f
4:00 9 13 mph 1012.6mb 52f 57f
3:54 11 14 mph 1012.7mb 52f 57f
3:48 13 14 mph 1012.6mb 52f 58f
3:42 10 11 mph 1012.7mb 52f 59f
3:36 9 11 mph 1012.7mb 51f 58f
3:30 9 10 mph 1012.8mb 50f 58f
3:24 9 11 mph 1012.8mb 50f 57f
3:18 9 11 mph 1012.9mb 50f 56f
3:12 9 11 mph 1013mb 50f 57f
3:06 11 13 mph 1013mb 49f 56f
3:00 9 13 mph 1013.1mb 48f 57f
2:54 10 13 mph 1013.1mb 48f 56f
2:48 10 13 mph 1013.1mb 48f 57f
2:42 9 13 mph 1013mb 48f 58f
2:36 10 11 mph 1012.9mb 48f 58f
2:30 9 11 mph 1013mb 48f 59f
2:18 6 9 mph 1013mb 48f 60f
2:12 6 8 mph 1013mb 48f 62f
2:06 5 6 mph 1013mb 48f 62f
2:00 5 6 mph 1013mb 48f 60f
1:54 5 8 mph 1013mb 48f 60f
1:48 7 9 mph 1013.1mb 48f 58f
1:42 7 8 mph 1013.2mb 47f 58f
1:24 6 7 mph 1013.3mb 48f 58f
1:18 6 7 mph 1013.2mb 48f 56f
1:12 5 6 mph 1013.3mb 48f 56f
1:06 6 7 mph 1013.2mb 47f 55f
1:00 6 8 mph 1013.2mb 48f 55f
12:48 8 10 mph 1013.2mb 47f 55f
12:42 10 11 mph 1013.3mb 47f 54f
12:36 10 14 mph 1013.2mb 47f 53f
12:30 11 13 mph 1013.1mb 47f 53f
12:24 10 13 mph 1013.1mb 46f 55f
12:18 8
mph
1013mb 46f 58f
12:12 6 7 mph 1013mb 46f 59f
12:06 7 8 mph 1013mb 46f 58f
12:00 7 9 mph 1013.1mb 46f 58f
11:54 8 9 mph 1013.2mb 46f 58f
11:48 8 10 mph 1013.3mb 46f 57f
11:42 9 10 mph 1013.4mb 46f 56f
11:36 8 9 mph 1013.5mb 46f 55f
11:18 9 10 mph 1013.3mb 47f 58f
11:12 9 11 mph 1013.3mb 46f 58f
11:06 10 11 mph 1013.3mb 46f 57f
11:00 9 11 mph 1013.3mb 46f 57f
10:54 9 10 mph 1013.3mb 46f 57f
10:48 9 10 mph 1013.4mb 46f 58f
10:42 8 10 mph 1013.3mb 46f 58f
10:36 9 10 mph 1013.4mb 46f 57f
10:30 6 7 mph 1013.4mb 46f 58f
10:24 6 7 mph 1013.5mb 46f 58f
10:18 6
mph
1013.4mb 47f 57f
10:12 6
mph
1013.3mb 46f 56f
10:00 5 6 mph 1013.1mb 46f 58f
9:54 3 5 mph 1013.1mb 46f 57f
9:48 3 5 mph 1013mb 46f 57f
9:42 3
mph
1012.9mb 47f 57f
9:36 3 5 mph 1013.1mb 47f 56f
9:30 5
mph
1013.1mb 47f 56f
9:24 5
mph
1013.1mb 47f 55f
9:18 5
mph
1013.1mb 47f 55f
9:12 3
mph
1013.1mb 47f 55f
9:06 3 5 mph 1013.1mb 47f 55f
9:00 3 5 mph 1013.2mb 47f 55f
8:54 3 5 mph 1013.2mb 47f 55f
8:48 3 5 mph 1013.1mb 47f 55f
8:42 3 6 mph 1013mb 47f 55f
8:36 3 5 mph 1013mb 48f 55f
8:30 3 5 mph 1012.9mb 48f 55f
8:24 3 5 mph 1012.9mb 48f 55f
8:18 3
mph
1012.8mb 48f 54f
8:12 2 3 mph 1012.8mb 48f 54f
8:06 1 5 mph 1012.7mb 47f 54f
8:00 3 5 mph 1012.6mb 47f 54f
7:48 3
mph
1012.5mb 47f 54f
7:42 3 5 mph 1012.5mb 47f 53f
7:36 3 5 mph 1012.5mb 47f 54f
7:30 3 5 mph 1012.5mb 47f 54f
7:24 2 3 mph 1012.4mb 47f 54f
7:18  -  1 mph 1012.3mb 50f 54f
7:12  -  1 mph 1012.3mb 50f 54f
7:06  -  1 mph 1012.1mb 50f 54f
7:00  -  1 mph 1011.9mb 50f 54f
6:54 1 2 mph 1011.9mb 50f 54f
6:48 3 5 mph 1011.8mb 50f 53f
6:42 5 6 mph 1011.8mb 50f 53f
6:36 3 5 mph 1011.9mb 50f 53f
6:30 2 3 mph 1011.7mb 50f 54f
6:24 2
mph
1011.6mb 50f 53f
6:18 2 3 mph 1011.6mb 50f 53f
6:12 2 3 mph 1011.5mb 51f 54f
6:06 3 5 mph 1011.4mb 51f 54f
6:00 3
mph
1011.3mb 51f 54f
5:54  -  mph 1011.2mb 51f 56f
5:48  -  1 mph 1011.1mb 51f 56f
5:42  -  1 mph 1011.1mb 51f 55f
5:36  -  2 mph 1011.1mb 51f 55f
5:30 2 5 mph 1011.1mb 51f 56f
5:24 1 2 mph 1010.9mb 51f 56f
5:18 2 5 mph 1010.8mb 51f 55f
5:12 3 5 mph 1010.6mb 51f 55f
5:06 2 5 mph 1010.6mb 51f 55f
5:00 1 2 mph 1010.7mb 51f 55f
4:54 2
mph
1010.7mb 51f 54f
4:48 1
mph
1010.7mb 51f 54f
4:42  -  mph 1010.8mb 51f 54f
4:36  -  1 mph 1010.8mb 51f 54f
4:30  -  2 mph 1010.9mb 51f 53f
4:24 2
mph
1011mb 51f 53f
4:18 1 2 mph 1010.9mb 50f 54f
4:12 2 3 mph 1010.8mb 50f 54f
4:06 2
mph
1010.8mb 50f 53f
4:00 1
mph
1010.7mb 50f 53f
3:54 1
mph
1010.7mb 50f 53f
3:48 1
mph
1010.7mb 50f 53f
3:42 1 2 mph 1010.6mb 50f 53f
3:36  -  3 mph 1010.6mb 50f 53f
3:30 3
mph
1010.5mb 50f 53f
3:24 2 3 mph 1010.5mb 50f 53f
3:18 3 5 mph 1010.4mb 50f 54f
3:12 5 6 mph 1010.2mb 50f 54f
3:06 3
mph
1010.1mb 50f 54f
3:00 3 7 mph 1010.1mb 50f 54f
2:54  -  3 mph 1010.1mb 49f 55f